Time;durP1;ratioP1;P1;durP2;ratioP2;P2;SDS_P1;SDS_P2;PMS_P1;PMS_P2;Temp;Humidity;BMP_temperature;BMP_pressure;BME280_temperature;BME280_humidity;BME280_pressure;Samples;Min_cycle;Max_cycle;Signal;HPM_P1;HPM_P2
2022/08/13 00:02:16;;;;;;;3.72;3.30;;;;;;;22.24;47.12;93633.75;5049274;28;20029;-76
2022/08/13 00:04:53;;;;;;;2.40;2.20;;;;;;;22.17;47.69;93630.28;5046888;28;20109;-77
2022/08/13 00:07:19;;;;;;;4.88;2.88;;;;;;;22.16;47.49;93621.38;5046797;28;20547;-78
2022/08/13 00:09:44;;;;;;;3.40;2.97;;;;;;;22.24;47.39;93631.06;5044118;28;20071;-76
2022/08/13 00:12:58;;;;;;;5.10;2.67;;;;;;;22.11;47.25;93608.22;5047827;28;20017;-76
2022/08/13 00:15:31;;;;;;;3.67;2.78;;;;;;;22.13;47.27;93619.47;5048161;28;20411;-77
2022/08/13 00:18:03;;;;;;;4.22;3.17;;;;;;;22.15;47.05;93633.38;5046559;28;20067;-78
2022/08/13 00:20:48;;;;;;;3.53;3.22;;;;;;;22.20;47.52;93627.56;5047938;28;20024;-77
2022/08/13 00:23:15;;;;;;;5.55;2.63;;;;;;;22.17;47.56;93636.47;5050599;28;20021;-77
2022/08/13 00:25:42;;;;;;;3.53;3.22;;;;;;;22.00;47.45;93607.47;5047193;28;20032;-76
2022/08/13 00:28:07;;;;;;;5.63;3.45;;;;;;;22.06;47.33;93607.84;5047406;28;20060;-78
2022/08/13 00:30:35;;;;;;;4.38;3.75;;;;;;;22.03;47.34;93603.22;5046650;28;20456;-76
2022/08/13 00:33:04;;;;;;;4.45;3.70;;;;;;;22.06;47.10;93599.72;5048197;28;20020;-77
2022/08/13 00:35:31;;;;;;;4.78;3.55;;;;;;;22.20;47.38;93615.94;5047812;28;20028;-77
2022/08/13 00:37:57;;;;;;;5.28;3.72;;;;;;;21.84;48.44;93569.25;5047813;28;20636;-76
2022/08/13 00:40:29;;;;;;;5.70;3.25;;;;;;;22.17;48.19;93617.50;5045945;28;20580;-78
2022/08/13 00:43:03;;;;;;;3.60;3.10;;;;;;;22.01;48.61;93605.53;5048152;28;20068;-75
2022/08/13 00:45:31;;;;;;;3.83;3.42;;;;;;;22.02;48.67;93605.16;5047396;28;20106;-76
2022/08/13 00:50:42;;;;;;;3.90;3.58;;;;;;;22.09;47.56;93620.63;5047965;28;20518;-76
2022/08/13 00:53:17;;;;;;;5.45;3.20;;;;;;;21.91;48.39;93593.56;5047060;28;20110;-77
2022/08/13 00:55:45;;;;;;;;;;;;;;;22.07;47.99;93623.72;5047292;28;20020;-78
2022/08/13 00:58:11;;;;;;;3.83;3.45;;;;;;;21.92;47.79;93595.13;5047828;28;19912;-77
2022/08/13 01:00:37;;;;;;;6.47;3.88;;;;;;;21.96;47.53;93595.88;5045539;28;20035;-77
2022/08/13 01:03:03;;;;;;;4.10;3.47;;;;;;;22.07;47.33;93612.88;5045750;28;20020;-76
2022/08/13 01:05:28;;;;;;;3.63;3.25;;;;;;;22.02;47.48;93605.16;5047631;28;20282;-78
2022/08/13 01:07:54;;;;;;;3.13;2.83;;;;;;;22.08;47.55;93619.84;5047401;28;20032;-76
2022/08/13 01:10:20;;;;;;;2.90;2.40;;;;;;;22.09;47.31;93604.38;5046894;28;20448;-76
2022/08/13 01:12:50;;;;;;;3.03;2.72;;;;;;;21.96;47.19;93592.41;5046460;28;20558;-76
2022/08/13 01:15:16;;;;;;;3.15;2.83;;;;;;;22.11;47.17;93610.94;5047639;28;20036;-77
2022/08/13 01:17:45;;;;;;;5.63;3.60;;;;;;;22.07;47.13;93599.34;5046675;28;20780;-76
2022/08/13 01:20:20;;;;;;;3.40;3.10;;;;;;;22.12;47.06;93607.06;5045021;28;20032;-76
2022/08/13 01:22:49;;;;;;;3.25;2.95;;;;;;;22.13;47.44;93610.56;5047920;28;20476;-77
2022/08/13 01:25:16;;;;;;;4.25;3.22;;;;;;;22.00;47.73;93598.59;5045513;28;20031;-77
2022/08/13 01:27:41;;;;;;;3.80;3.38;;;;;;;21.97;47.52;93600.16;5046490;28;20439;-76
2022/08/13 01:30:09;;;;;;;3.95;3.55;;;;;;;21.91;47.74;93587.38;5048457;28;20040;-77
2022/08/13 01:32:37;;;;;;;3.50;3.20;;;;;;;22.02;47.52;93604.38;5045410;28;20035;-77
2022/08/13 01:35:05;;;;;;;5.03;3.70;;;;;;;22.02;47.52;93599.75;5046649;28;20394;-76
2022/08/13 01:37:31;;;;;;;4.00;3.60;;;;;;;21.89;47.90;93582.38;5047925;28;20419;-76
2022/08/13 01:39:57;;;;;;;5.93;3.90;;;;;;;22.02;47.79;93605.16;5045680;28;20485;-76
2022/08/13 01:42:23;;;;;;;5.32;4.07;;;;;;;21.93;47.62;93588.56;5044151;28;20048;-77
2022/08/13 01:44:49;;;;;;;4.78;4.22;;;;;;;22.03;47.54;93595.88;5045658;28;20031;-77
2022/08/13 01:52:42;;;;;;;4.40;3.80;;;;;;;21.75;46.80;93558.81;5045132;28;20035;-77
2022/08/13 01:55:08;;;;;;;4.03;3.38;;;;;;;21.92;46.28;93589.72;5045205;28;20020;-77
2022/08/13 01:57:37;;;;;;;5.95;4.05;;;;;;;21.80;47.06;93584.72;5045809;28;20028;-77
2022/08/13 02:00:09;;;;;;;4.88;4.00;;;;;;;21.88;46.44;93587.03;5047581;28;20258;-75
2022/08/13 02:02:34;;;;;;;5.55;4.13;;;;;;;21.73;47.12;93557.66;5045242;28;20029;-76
2022/08/13 02:05:00;;;;;;;6.03;4.15;;;;;;;21.93;47.05;93569.59;5045681;28;20492;-78
2022/08/13 02:07:26;;;;;;;5.70;4.47;;;;;;;21.92;47.56;93568.06;5046938;28;20082;-76
2022/08/13 02:09:52;;;;;;;4.88;3.90;;;;;;;21.99;47.67;93581.59;5046004;28;20325;-78
2022/08/13 02:12:17;;;;;;;4.68;4.10;;;;;;;21.97;48.17;93592.03;5047185;28;20124;-77
2022/08/13 02:14:43;;;;;;;5.78;4.50;;;;;;;21.97;48.08;93585.84;5047734;28;20036;-77
2022/08/13 02:17:25;;;;;;;4.07;3.67;;;;;;;21.90;48.56;93586.63;5048915;28;20021;-78
2022/08/13 02:19:55;;;;;;;8.57;3.75;;;;;;;21.89;48.98;93587.78;5050647;28;20032;-77
2022/08/13 02:22:22;;;;;;;5.20;4.30;;;;;;;21.86;48.78;93580.44;5048528;28;20027;-76
2022/08/13 02:24:53;;;;;;;6.18;3.50;;;;;;;21.89;48.72;93593.22;5048505;28;20040;-77
2022/08/13 02:27:21;;;;;;;4.57;3.88;;;;;;;21.76;48.25;93559.56;5050781;28;20028;-77
2022/08/13 02:29:49;;;;;;;5.60;3.50;;;;;;;21.92;48.46;93591.66;5049325;28;20629;-76
2022/08/13 02:32:16;;;;;;;6.65;3.92;;;;;;;21.77;48.83;93567.31;5050264;28;20066;-77
2022/08/13 02:34:44;;;;;;;4.50;4.10;;;;;;;21.81;48.80;93584.31;5051153;28;20468;-77
2022/08/13 02:37:11;;;;;;;5.90;4.13;;;;;;;21.87;48.82;93592.81;5049104;28;20354;-77
2022/08/13 02:39:37;;;;;;;5.53;4.38;;;;;;;21.91;48.70;93592.81;5048529;28;20081;-78
2022/08/13 02:42:03;;;;;;;4.78;3.70;;;;;;;21.85;48.92;93584.31;5047940;28;20076;-76
2022/08/13 02:44:28;;;;;;;5.28;3.50;;;;;;;21.87;48.29;93590.09;5047991;28;20425;-76
2022/08/13 02:46:54;;;;;;;4.10;3.70;;;;;;;21.91;48.36;93590.88;5050778;28;20040;-78
2022/08/13 02:49:21;;;;;;;4.28;3.55;;;;;;;21.83;48.55;93584.72;5048469;28;20554;-76
2022/08/13 02:51:47;;;;;;;4.20;3.80;;;;;;;21.73;48.57;93576.59;5052740;28;20531;-76
2022/08/13 02:54:16;;;;;;;4.43;3.55;;;;;;;21.64;48.79;93562.69;5048896;28;20021;-75
2022/08/13 02:56:43;;;;;;;3.85;3.30;;;;;;;21.45;48.34;93537.56;5049615;28;20025;-77
2022/08/13 02:59:10;;;;;;;5.97;3.78;;;;;;;21.58;48.75;93553.41;5050137;28;20034;-77
2022/08/13 03:01:38;;;;;;;5.38;3.53;;;;;;;21.63;49.05;93569.25;5051288;28;20039;-76
2022/08/13 03:04:03;;;;;;;3.55;3.08;;;;;;;21.57;49.20;93566.16;5048398;28;20447;-76
2022/08/13 03:06:29;;;;;;;4.20;3.55;;;;;;;21.61;48.85;93574.31;5055187;28;20025;-77
2022/08/13 03:08:54;;;;;;;4.43;3.72;;;;;;;21.61;48.94;93579.72;5050861;28;20037;-76
2022/08/13 03:11:20;;;;;;;4.47;3.53;;;;;;;21.59;49.12;93576.63;5046107;28;20039;-76
2022/08/13 03:13:58;;;;;;;4.30;3.40;;;;;;;21.52;49.26;93566.53;5048962;28;20036;-78
2022/08/13 03:16:26;;;;;;;4.38;3.97;;;;;;;21.69;49.09;93595.56;5047224;28;20541;-77
2022/08/13 03:18:54;;;;;;;4.80;3.65;;;;;;;21.53;48.95;93568.09;5055528;28;20041;-76
2022/08/13 03:21:49;;;;;;;4.00;3.63;;;;;;;21.76;48.78;93590.13;5047982;28;20025;-77
2022/08/13 03:24:19;;;;;;;4.15;3.67;;;;;;;21.76;49.04;93586.63;5045490;28;20040;-75
2022/08/13 03:26:45;;;;;;;3.65;3.35;;;;;;;21.61;48.86;93558.06;5048205;28;20108;-76
2022/08/13 03:29:11;;;;;;;3.65;3.22;;;;;;;21.70;48.97;93588.22;5049010;28;20056;-77
2022/08/13 03:31:37;;;;;;;3.67;3.38;;;;;;;21.61;49.17;93577.75;5049456;28;20036;-76
2022/08/13 03:34:04;;;;;;;4.82;4.22;;;;;;;21.52;49.08;93571.94;5046871;28;20017;-76
2022/08/13 03:36:31;;;;;;;3.80;3.45;;;;;;;21.44;49.28;93568.47;5047615;28;20477;-76
2022/08/13 03:38:57;;;;;;;4.07;3.67;;;;;;;21.70;49.59;93601.75;5050171;28;20396;-77
2022/08/13 03:41:23;;;;;;;4.75;3.67;;;;;;;21.73;49.29;93596.31;5047925;28;20049;-76
2022/08/13 03:43:49;;;;;;;4.70;3.70;;;;;;;21.70;48.98;93594.41;5049500;28;20507;-76
2022/08/13 03:46:18;;;;;;;6.60;3.13;;;;;;;21.72;49.19;93599.41;5048348;28;20155;-77
2022/08/13 03:48:45;;;;;;;7.40;3.97;;;;;;;21.66;48.86;93609.06;5049787;28;20027;-77
2022/08/13 03:51:11;;;;;;;4.47;3.13;;;;;;;21.53;48.88;93578.13;5047003;28;20048;-76
2022/08/13 03:53:38;;;;;;;4.20;3.80;;;;;;;21.54;49.32;93585.09;5048448;28;20017;-76
2022/08/13 03:56:05;;;;;;;3.83;3.15;;;;;;;21.66;49.06;93603.66;5054407;28;21088;-76
2022/08/13 03:58:31;;;;;;;4.40;4.00;;;;;;;21.54;49.53;93585.09;5049244;28;20033;-77
2022/08/13 04:00:57;;;;;;;4.05;3.65;;;;;;;21.68;49.68;93601.34;5046404;28;20534;-76
2022/08/13 04:03:25;;;;;;;3.90;3.53;;;;;;;21.70;49.46;93599.03;5047668;28;20488;-77
2022/08/13 04:05:59;;;;;;;4.75;4.03;;;;;;;21.72;49.17;93602.13;5046979;28;20600;-76
2022/08/13 04:08:35;;;;;;;4.63;4.00;;;;;;;21.71;49.53;93608.69;5048585;28;20032;-77
2022/08/13 04:11:05;;;;;;;5.22;3.85;;;;;;;21.56;49.87;93590.94;5046445;28;20131;-77
2022/08/13 04:13:36;;;;;;;3.90;3.50;;;;;;;21.65;50.40;93602.13;5046849;28;20162;-76
2022/08/13 04:16:23;;;;;;;6.05;3.90;;;;;;;21.57;50.17;93589.75;5046116;28;20025;-77
2022/08/13 04:18:50;;;;;;;5.68;4.30;;;;;;;21.53;50.52;93588.97;5047869;28;20061;-76
2022/08/13 04:21:17;;;;;;;4.55;4.13;;;;;;;21.68;50.72;93604.06;5047844;28;20062;-79
2022/08/13 04:23:44;;;;;;;5.20;4.20;;;;;;;21.67;51.14;93613.31;5045075;28;20037;-77
2022/08/13 04:26:14;;;;;;;7.47;4.40;;;;;;;21.60;50.21;93592.47;5048303;28;20028;-77
2022/08/13 04:28:41;;;;;;;5.95;4.70;;;;;;;21.53;49.70;93583.53;5045978;28;20066;-78
2022/08/13 04:31:10;;;;;;;4.25;3.85;;;;;;;21.65;50.16;93613.72;5048515;28;20547;-77
2022/08/13 04:33:36;;;;;;;5.75;4.55;;;;;;;21.61;49.71;93596.72;5047130;28;20032;-77
2022/08/13 04:36:02;;;;;;;7.20;4.50;;;;;;;21.44;49.61;93557.66;5049100;28;20027;-77
2022/08/13 04:38:28;;;;;;;4.88;3.90;;;;;;;21.64;49.43;93584.34;5045080;28;20055;-77
2022/08/13 04:40:53;;;;;;;5.90;4.55;;;;;;;21.75;49.27;93593.22;5047358;28;20493;-77
2022/08/13 04:43:19;;;;;;;5.82;4.15;;;;;;;21.75;49.39;93587.81;5050128;28;20041;-77
2022/08/13 04:45:44;;;;;;;4.95;3.85;;;;;;;21.66;49.08;93576.59;5046941;28;20594;-76
2022/08/13 04:48:15;;;;;;;5.20;4.40;;;;;;;21.76;48.75;93602.88;5046598;28;20031;-78
2022/08/13 04:50:43;;;;;;;16.90;5.30;;;;;;;21.81;48.75;93599.78;5052576;28;20025;-77
2022/08/13 04:53:24;;;;;;;5.03;4.53;;;;;;;21.79;48.48;93600.19;5046225;28;20539;-76
2022/08/13 04:55:49;;;;;;;5.93;5.30;;;;;;;21.81;48.36;93605.19;5046628;28;20048;-77
2022/08/13 04:58:16;;;;;;;5.55;4.95;;;;;;;21.76;48.95;93592.03;5048090;28;20436;-77
2022/08/13 05:00:44;;;;;;;6.88;4.60;;;;;;;21.66;48.41;93582.78;5045979;28;20098;-77
2022/08/13 05:03:12;;;;;;;5.50;4.68;;;;;;;21.69;48.30;93600.19;5047286;28;20560;-76
2022/08/13 05:05:38;;;;;;;5.53;4.45;;;;;;;21.72;48.37;93602.13;5047509;28;20044;-77
2022/08/13 05:08:05;;;;;;;6.13;4.20;;;;;;;21.65;47.93;93605.63;5044992;28;20554;-76
2022/08/13 05:10:31;;;;;;;5.80;4.20;;;;;;;21.65;47.91;93602.13;5044620;28;20020;-76
2022/08/13 05:13:03;;;;;;;6.45;4.50;;;;;;;21.58;48.75;93580.47;5047456;28;20060;-77
2022/08/13 05:15:29;;;;;;;6.22;5.13;;;;;;;21.71;48.48;93603.28;5051248;28;20023;-77
2022/08/13 05:17:54;;;;;;;5.13;4.57;;;;;;;21.76;48.35;93608.28;5049983;28;20487;-77
2022/08/13 05:20:20;;;;;;;6.55;4.20;;;;;;;21.71;48.01;93595.16;5047871;28;20391;-74
2022/08/13 05:22:46;;;;;;;5.15;4.07;;;;;;;21.65;47.71;93585.91;5050447;28;20021;-76
2022/08/13 05:25:14;;;;;;;9.18;4.93;;;;;;;21.61;48.03;93596.72;5046391;28;20377;-77
2022/08/13 05:27:43;;;;;;;6.72;4.30;;;;;;;21.70;47.53;93601.75;5047789;28;20194;-79
2022/08/13 05:30:10;;;;;;;5.57;4.68;;;;;;;21.58;47.73;93588.59;5045690;28;20029;-76
2022/08/13 05:32:38;;;;;;;4.75;4.10;;;;;;;21.74;47.97;93605.22;5052107;28;20571;-77
2022/08/13 05:35:10;;;;;;;6.55;5.03;;;;;;;21.42;48.08;93584.31;5048713;28;20025;-76
2022/08/13 05:37:35;;;;;;;5.03;4.53;;;;;;;21.49;48.38;93588.19;5045032;28;20477;-77
2022/08/13 05:40:01;;;;;;;6.47;5.25;;;;;;;21.53;48.05;93588.97;5044725;28;20074;-76
2022/08/13 05:42:26;;;;;;;5.13;4.30;;;;;;;21.55;48.11;93605.63;5047549;28;20069;-77
2022/08/13 05:44:54;;;;;;;9.10;4.85;;;;;;;21.44;48.59;93592.06;5042044;28;20415;-78
2022/08/13 05:47:20;;;;;;;8.40;5.28;;;;;;;21.49;48.45;93599.00;5047544;28;20021;-77
2022/08/13 05:49:45;;;;;;;5.65;5.05;;;;;;;21.32;48.90;93595.13;5050577;28;20021;-77
2022/08/13 05:52:11;;;;;;;6.40;5.00;;;;;;;21.50;48.83;93605.97;5049912;28;20499;-77
2022/08/13 05:54:37;;;;;;;6.15;5.07;;;;;;;21.48;48.66;93595.53;5048552;28;20043;-76
2022/08/13 05:57:03;;;;;;;6.32;5.18;;;;;;;21.71;48.71;93605.97;5050048;28;20071;-76
2022/08/13 06:04:57;;;;;;;6.90;5.55;;;;;;;21.82;47.83;93607.53;5049468;28;20035;-77
2022/08/13 06:07:22;;;;;;;7.53;5.45;;;;;;;21.91;47.96;93609.81;5049904;28;20020;-78
2022/08/13 06:09:48;;;;;;;9.68;6.10;;;;;;;21.59;48.19;93592.84;5048903;28;20434;-76
2022/08/13 06:12:14;;;;;;;6.70;5.95;;;;;;;21.75;48.11;93604.84;5050931;28;20113;-78
2022/08/13 06:14:40;;;;;;;7.30;6.05;;;;;;;21.26;47.72;93537.19;5048275;28;20067;-76
2022/08/13 06:17:06;;;;;;;6.07;5.13;;;;;;;21.77;48.51;93605.19;5048903;28;20158;-77
2022/08/13 06:19:35;;;;;;;6.45;5.60;;;;;;;21.74;48.07;93599.81;5048556;28;20070;-76
2022/08/13 06:22:04;;;;;;;8.50;6.13;;;;;;;21.81;48.00;93608.69;5047054;28;20108;-77
2022/08/13 06:24:32;;;;;;;9.02;5.93;;;;;;;21.74;48.84;93594.38;5049367;28;20078;-75
2022/08/13 06:27:04;;;;;;;6.90;5.93;;;;;;;21.90;48.40;93613.72;5049569;28;20116;-76
2022/08/13 06:29:33;;;;;;;8.10;6.47;;;;;;;21.79;48.46;93591.28;5049022;28;21030;-75
2022/08/13 06:32:00;;;;;;;8.18;5.75;;;;;;;21.91;47.87;93609.81;5049872;28;20043;-77
2022/08/13 06:34:25;;;;;;;6.50;5.72;;;;;;;21.90;48.17;93604.81;5048371;28;20508;-76
2022/08/13 06:36:51;;;;;;;7.88;6.78;;;;;;;22.00;48.13;93610.19;5046554;28;20024;-76
2022/08/13 06:39:17;;;;;;;7.20;5.68;;;;;;;21.96;48.41;93595.88;5048474;28;20480;-78
2022/08/13 06:41:45;;;;;;;7.32;6.18;;;;;;;21.91;48.18;93588.16;5048582;28;20050;-75
2022/08/13 06:44:11;;;;;;;8.45;6.20;;;;;;;22.11;47.79;93608.22;5048389;28;20040;-77
2022/08/13 06:46:38;;;;;;;9.05;6.50;;;;;;;22.19;47.69;93603.59;5048758;28;20070;-76
2022/08/13 06:49:04;;;;;;;11.20;6.10;;;;;;;22.00;47.61;93583.09;5048634;28;20029;-77
2022/08/13 06:51:30;;;;;;;7.72;5.60;;;;;;;21.99;47.07;93570.75;5048808;28;20369;-75
2022/08/13 06:53:56;;;;;;;7.60;6.43;;;;;;;22.21;47.44;93595.81;5048354;28;20060;-78
2022/08/13 06:56:24;;;;;;;9.57;6.90;;;;;;;22.18;47.45;93597.41;5049048;28;20055;-76
2022/08/13 06:58:52;;;;;;;7.93;6.05;;;;;;;22.27;47.27;93608.63;5050141;28;20478;-77
2022/08/13 07:01:24;;;;;;;7.30;5.68;;;;;;;22.29;47.37;93600.84;5048688;28;20115;-76
2022/08/13 07:03:50;;;;;;;7.13;6.43;;;;;;;22.30;46.84;93598.91;5047556;28;20024;-76
2022/08/13 07:06:27;;;;;;;8.45;5.93;;;;;;;22.44;46.88;93609.72;5047396;28;20063;-76
2022/08/13 07:08:55;;;;;;;9.10;6.07;;;;;;;22.46;46.72;93595.78;5047854;28;20040;-77
2022/08/13 07:11:22;;;;;;;6.47;5.75;;;;;;;22.55;47.15;93606.97;5056388;28;20615;-75
2022/08/13 07:13:56;;;;;;;7.13;6.00;;;;;;;22.56;47.57;93603.88;5046932;28;20671;-76
2022/08/13 07:16:24;;;;;;;8.00;6.13;;;;;;;22.54;47.42;93600.00;5049501;28;20382;-75
2022/08/13 07:18:51;;;;;;;6.95;5.95;;;;;;;22.46;46.95;93590.34;5048132;28;20086;-78
2022/08/13 07:21:20;;;;;;;7.50;5.85;;;;;;;22.59;46.95;93607.72;5049377;28;20024;-75
2022/08/13 07:23:48;;;;;;;7.45;6.28;;;;;;;22.51;46.58;93601.56;5049561;28;20641;-77
2022/08/13 07:26:16;;;;;;;8.40;6.97;;;;;;;22.60;46.88;93606.56;5049531;28;20032;-77
2022/08/13 07:28:44;;;;;;;8.75;6.55;;;;;;;22.45;46.65;93594.22;5046437;28;20021;-76
2022/08/13 07:31:10;;;;;;;7.90;6.53;;;;;;;22.70;46.57;93617.34;5048356;28;20028;-76
2022/08/13 07:33:42;;;;;;;8.45;6.10;;;;;;;22.75;46.31;93616.16;5049510;28;20028;-76
2022/08/13 07:36:13;;;;;;;7.13;6.15;;;;;;;22.57;46.52;93613.53;5048632;28;20627;-75
2022/08/13 07:38:41;;;;;;;9.52;7.47;;;;;;;22.57;46.66;93612.78;5045051;28;20396;-78
2022/08/13 07:41:10;;;;;;;9.95;6.57;;;;;;;22.48;46.79;93582.63;5045933;28;20609;-76
2022/08/13 07:43:39;;;;;;;7.07;5.93;;;;;;;22.65;47.05;93614.28;5044465;28;20055;-75
2022/08/13 07:46:13;;;;;;;6.75;6.00;;;;;;;22.59;47.02;93599.56;5041640;28;20024;-76
2022/08/13 07:48:40;;;;;;;9.90;6.35;;;;;;;22.65;46.99;93606.91;5042387;28;20126;-77
2022/08/13 07:51:18;;;;;;;9.85;6.40;;;;;;;22.68;46.78;93613.50;5042561;28;20614;-77
2022/08/13 07:53:48;;;;;;;7.13;6.22;;;;;;;22.60;47.36;93612.75;5043257;28;20052;-75
2022/08/13 07:56:28;;;;;;;10.85;7.10;;;;;;;22.60;47.40;93601.13;5041719;28;20051;-78
2022/08/13 07:58:56;;;;;;;8.27;6.50;;;;;;;22.70;47.25;93608.44;5044100;28;20041;-76
2022/08/13 08:01:23;;;;;;;11.15;8.77;;;;;;;22.76;46.72;93604.16;5047324;28;20659;-77
2022/08/13 08:03:52;;;;;;;8.23;7.15;;;;;;;22.82;46.87;93608.00;5050007;28;20029;-77
2022/08/13 08:06:19;;;;;;;8.30;6.68;;;;;;;22.83;47.64;93600.66;5054045;28;20021;-76
2022/08/13 08:08:46;;;;;;;9.85;8.20;;;;;;;22.82;46.68;93597.16;5043943;28;20020;-75
2022/08/13 08:14:02;;;;;;;12.68;6.68;;;;;;;22.95;46.29;93614.53;5047201;28;20032;-76
2022/08/13 08:16:30;;;;;;;10.23;7.95;;;;;;;22.87;46.30;93594.06;5049074;28;20025;-77
2022/08/13 08:18:57;;;;;;;8.70;6.63;;;;;;;22.83;46.18;93593.25;5048603;28;20477;-75
2022/08/13 08:21:24;;;;;;;9.85;7.10;;;;;;;22.79;46.76;93584.38;5045968;28;20025;-78
2022/08/13 08:24:01;;;;;;;9.32;7.18;;;;;;;22.62;46.37;93560.88;5046504;28;20029;-79
2022/08/13 08:26:29;;;;;;;8.90;7.63;;;;;;;22.95;46.59;93602.94;5046139;28;20487;-77
2022/08/13 08:28:56;;;;;;;7.72;6.60;;;;;;;22.95;46.49;93605.63;5041829;28;20324;-76
2022/08/13 08:31:25;;;;;;;8.25;6.88;;;;;;;22.92;46.77;93599.06;5043759;28;20346;-78
2022/08/13 08:33:52;;;;;;;10.45;7.35;;;;;;;22.95;46.61;93594.78;5041667;28;20063;-77
2022/08/13 08:36:17;;;;;;;8.68;6.95;;;;;;;22.86;46.54;93581.69;5041614;28;20553;-76
2022/08/13 08:44:23;;;;;;;9.02;7.38;;;;;;;22.88;46.48;93595.59;5040561;28;20374;-77
2022/08/13 08:46:53;;;;;;;9.45;7.57;;;;;;;22.94;46.82;93599.44;5042819;28;20032;-76
2022/08/13 08:49:21;;;;;;;8.85;7.15;;;;;;;22.86;46.41;93576.25;5039585;28;20045;-76
2022/08/13 08:51:52;;;;;;;9.27;8.15;;;;;;;22.62;46.47;93579.84;5039928;28;20036;-76
2022/08/13 08:54:19;;;;;;;9.52;7.90;;;;;;;22.74;46.50;93584.78;5041846;28;20032;-75
2022/08/13 08:56:46;;;;;;;9.40;7.20;;;;;;;22.77;46.88;93578.59;5043360;28;20033;-77
2022/08/13 08:59:13;;;;;;;10.57;7.22;;;;;;;22.91;47.84;93594.81;5040190;28;20021;-75
2022/08/13 09:01:40;;;;;;;11.77;8.38;;;;;;;22.92;47.56;93590.94;5039443;28;20297;-77
2022/08/13 09:04:09;;;;;;;11.35;7.85;;;;;;;22.91;47.74;93583.97;5039058;28;20059;-75
2022/08/13 09:06:35;;;;;;;9.55;7.65;;;;;;;22.93;49.46;93592.47;5042957;28;20032;-76
2022/08/13 09:09:02;;;;;;;14.90;9.38;;;;;;;22.89;51.84;93602.56;5045790;28;20493;-76
2022/08/13 09:11:34;;;;;;;13.80;8.73;;;;;;;22.67;55.36;93585.63;5037869;28;20052;-76
2022/08/13 09:14:07;;;;;;;11.13;8.38;;;;;;;22.66;57.72;93599.56;5039789;28;20028;-76
2022/08/13 09:16:36;;;;;;;11.32;8.07;;;;;;;22.55;56.90;93594.19;5043971;28;20024;-75
2022/08/13 09:19:02;;;;;;;15.07;9.40;;;;;;;22.52;57.78;93605.03;5044494;28;20925;-77
2022/08/13 09:21:27;;;;;;;18.65;9.65;;;;;;;22.50;58.52;93607.38;5042201;28;20422;-77
2022/08/13 09:26:29;;;;;;;15.45;9.48;;;;;;;22.31;57.29;93586.94;4968453;22;20063;-80
2022/08/13 09:28:56;;;;;;;14.23;10.20;;;;;;;22.15;58.62;93576.50;5063100;28;20520;-81
2022/08/13 09:31:23;;;;;;;19.90;9.18;;;;;;;22.13;58.64;93578.84;5062052;28;20117;-80
2022/08/13 09:33:49;;;;;;;14.60;9.60;;;;;;;22.13;58.53;93584.25;5061139;28;20028;-78
2022/08/13 09:36:15;;;;;;;13.73;9.63;;;;;;;22.08;58.09;93589.28;5058795;28;20031;-84
2022/08/13 09:38:42;;;;;;;12.70;9.10;;;;;;;21.96;59.26;93595.88;5076612;28;20032;-80
2022/08/13 09:41:20;;;;;;;12.20;9.68;;;;;;;21.98;59.43;93593.56;5059410;28;20028;-82
2022/08/13 09:43:49;;;;;;;12.27;8.93;;;;;;;21.68;60.70;93563.47;5059954;28;20447;-79
2022/08/13 09:46:16;;;;;;;12.45;9.85;;;;;;;21.70;59.84;93566.56;5067819;28;20020;-81
2022/08/13 09:48:42;;;;;;;14.27;9.15;;;;;;;21.78;60.62;93592.44;5074872;28;20100;-79
2022/08/13 09:51:13;;;;;;;12.85;9.05;;;;;;;21.72;61.47;93572.34;5054103;28;20032;-82
2022/08/13 09:53:46;;;;;;;13.80;9.65;;;;;;;21.72;61.51;93592.06;5065530;28;20033;-80
2022/08/13 09:56:14;;;;;;;10.57;8.85;;;;;;;21.73;61.29;93592.84;5068420;28;20021;-82
2022/08/13 09:58:39;;;;;;;12.82;9.43;;;;;;;21.72;62.45;93594.00;5068232;28;20111;-80
2022/08/13 10:01:05;;;;;;;11.52;9.73;;;;;;;21.46;62.53;93562.69;5069006;28;20031;-81
2022/08/13 10:03:42;;;;;;;13.57;9.60;;;;;;;21.45;62.60;93561.16;5040774;28;20032;-80
2022/08/13 10:06:10;;;;;;;13.13;9.00;;;;;;;21.42;62.66;93559.97;5051385;28;20054;-80
2022/08/13 10:08:36;;;;;;;13.73;10.07;;;;;;;21.44;62.80;93554.97;5061401;28;20020;-80
2022/08/13 10:11:02;;;;;;;11.00;8.98;;;;;;;21.67;62.32;93589.75;5063682;28;20683;-79
2022/08/13 10:13:28;;;;;;;12.55;9.18;;;;;;;21.64;62.13;93592.47;5067230;28;20021;-79
2022/08/13 10:15:54;;;;;;;11.07;8.50;;;;;;;21.68;61.82;93593.22;5065158;28;20055;-80
2022/08/13 10:18:19;;;;;;;11.10;8.23;;;;;;;21.65;61.83;93589.38;5083607;28;20450;-82
2022/08/13 10:20:45;;;;;;;14.40;9.23;;;;;;;21.40;62.14;93558.81;5068376;28;20537;-80
2022/08/13 10:23:13;;;;;;;10.38;8.13;;;;;;;21.64;63.00;93584.34;5066815;28;20162;-81
2022/08/13 10:25:40;;;;;;;11.02;9.00;;;;;;;21.37;64.20;93541.41;5067616;28;20063;-81
2022/08/13 10:28:17;;;;;;;10.70;8.65;;;;;;;21.46;64.69;93552.63;5060063;28;20036;-80
2022/08/13 10:30:42;;;;;;;12.48;8.30;;;;;;;21.54;64.49;93566.16;5062175;28;20639;-80
2022/08/13 10:33:08;;;;;;;12.93;8.70;;;;;;;21.58;64.66;93570.44;5058870;28;20386;-80
2022/08/13 10:35:34;;;;;;;13.30;9.82;;;;;;;21.38;65.07;93532.16;5071446;28;20030;-79
2022/08/13 10:38:00;;;;;;;10.75;8.90;;;;;;;21.65;64.54;93575.84;5043685;28;20593;-81
2022/08/13 10:40:27;;;;;;;13.88;9.10;;;;;;;21.61;64.61;93563.47;5064124;28;20121;-81
2022/08/13 10:42:54;;;;;;;11.48;8.98;;;;;;;21.67;64.52;93578.16;5070229;28;20024;-81
2022/08/13 10:45:24;;;;;;;11.77;8.98;;;;;;;21.62;64.40;93575.84;5074053;28;20024;-80
2022/08/13 10:47:52;;;;;;;12.32;8.35;;;;;;;21.48;65.70;93584.72;5048951;28;20468;-80
2022/08/13 10:50:19;;;;;;;10.90;8.20;;;;;;;21.53;65.46;93570.78;5058054;28;20028;-80
2022/08/13 10:52:46;;;;;;;9.75;7.57;;;;;;;21.63;65.64;93580.09;5067890;28;20489;-80
2022/08/13 10:55:18;;;;;;;11.75;7.95;;;;;;;21.61;65.04;93577.00;5049120;28;20482;-81
2022/08/13 10:57:46;;;;;;;10.73;7.88;;;;;;;21.53;64.98;93578.13;5066633;28;20553;-80
2022/08/13 11:00:16;;;;;;;9.80;8.05;;;;;;;20.92;65.72;93499.69;5067982;28;20071;-80
2022/08/13 11:02:42;;;;;;;8.65;7.32;;;;;;;21.43;65.84;93585.09;5064199;28;20127;-80
2022/08/13 11:05:09;;;;;;;11.23;8.02;;;;;;;21.09;64.97;93554.94;5062814;28;20020;-80
2022/08/13 11:07:36;;;;;;;11.23;7.93;;;;;;;21.27;65.39;93571.94;5067768;28;20107;-81
2022/08/13 11:10:08;;;;;;;13.45;9.13;;;;;;;20.98;65.39;93560.34;5071688;28;20018;-80
2022/08/13 11:12:42;;;;;;;11.30;8.52;;;;;;;21.07;65.46;93546.44;5073009;28;20408;-84
2022/08/13 11:15:08;;;;;;;11.30;9.40;;;;;;;20.87;64.91;93518.25;5072985;28;20034;-82
2022/08/13 11:17:34;;;;;;;13.98;9.75;;;;;;;21.33;65.77;93575.81;5068585;28;20040;-83
2022/08/13 11:20:05;;;;;;;12.80;8.80;;;;;;;21.41;65.28;93571.19;5070635;28;20217;-82
2022/08/13 11:22:31;;;;;;;11.18;8.70;;;;;;;21.23;63.79;93549.53;5069307;28;20478;-82
2022/08/13 11:25:01;;;;;;;8.48;7.60;;;;;;;20.85;65.82;93551.03;5065082;28;20024;-81
2022/08/13 11:27:27;;;;;;;9.13;7.65;;;;;;;20.94;65.64;93547.97;5066900;28;20963;-83
2022/08/13 11:29:53;;;;;;;9.82;7.20;;;;;;;21.03;65.14;93540.25;5067278;28;20020;-81
2022/08/13 11:32:19;;;;;;;9.68;7.63;;;;;;;20.96;63.90;93546.44;5067431;28;20024;-81
2022/08/13 11:34:49;;;;;;;10.40;8.15;;;;;;;20.84;64.74;93554.13;5069947;28;20032;-82
2022/08/13 11:37:15;;;;;;;9.00;7.43;;;;;;;21.00;64.57;93551.84;5065560;28;20751;-81
2022/08/13 11:39:40;;;;;;;9.60;7.72;;;;;;;20.87;62.50;93545.28;5065361;28;20123;-81
2022/08/13 11:42:06;;;;;;;9.95;7.88;;;;;;;20.44;63.17;93534.34;5081781;28;20047;-83
2022/08/13 11:44:31;;;;;;;7.72;6.82;;;;;;;20.47;62.55;93557.91;5067074;28;20020;-81
2022/08/13 11:46:57;;;;;;;10.32;8.02;;;;;;;20.54;62.54;93576.81;5067437;28;20036;-80
2022/08/13 11:49:23;;;;;;;11.93;7.95;;;;;;;20.48;62.78;93577.59;5065257;28;20020;-80
2022/08/13 11:51:50;;;;;;;8.80;7.82;;;;;;;20.44;63.46;93576.78;5082039;28;20036;-80
2022/08/13 11:54:18;;;;;;;14.93;8.02;;;;;;;20.29;63.83;93572.50;5070761;28;20019;-80
2022/08/13 11:56:44;;;;;;;8.27;7.15;;;;;;;20.42;64.67;93593.38;5065158;28;20025;-80
2022/08/13 11:59:09;;;;;;;8.98;7.18;;;;;;;20.31;65.23;93557.44;5066857;28;20791;-80
2022/08/13 12:01:36;;;;;;;9.77;8.25;;;;;;;20.39;66.13;93586.03;5066089;28;20035;-82